createdAt,value
2019-04-21T00:00:19.250Z,22.40
2019-04-21T00:01:18.387Z,21.60
2019-04-21T00:02:24.241Z,21.60
2019-04-21T00:03:25.838Z,23.00
2019-04-21T00:04:32.164Z,23.00
2019-04-21T00:05:38.490Z,22.10
2019-04-21T00:06:43.473Z,22.70
2019-04-21T00:07:37.748Z,23.70
2019-04-21T00:08:57.937Z,24.40
2019-04-21T00:09:41.074Z,24.70
2019-04-21T00:10:40.098Z,23.90
2019-04-21T00:11:40.852Z,24.60
2019-04-21T00:12:35.642Z,23.80
2019-04-21T00:13:36.739Z,24.40
2019-04-21T00:14:30.351Z,24.40
2019-04-21T00:15:28.935Z,25.10
2019-04-21T00:16:29.108Z,24.80
2019-04-21T00:17:21.773Z,25.80
2019-04-21T00:18:19.105Z,25.30
2019-04-21T00:19:21.555Z,25.40
2019-04-21T00:20:26.944Z,24.90
2019-04-21T00:21:26.499Z,24.90
2019-04-21T00:22:30.373Z,26.60
2019-04-21T00:23:37.489Z,25.50
2019-04-21T00:24:29.004Z,26.20
2019-04-21T00:25:32.160Z,25.80
2019-04-21T00:26:36.465Z,25.70
2019-04-21T00:27:33.344Z,25.20
2019-04-21T00:28:42.584Z,27.00
2019-04-21T00:30:39.893Z,27.80
2019-04-21T00:31:34.116Z,26.60
2019-04-21T00:32:33.383Z,27.20
2019-04-21T00:33:25.851Z,27.40
2019-04-21T00:34:19.432Z,27.50
2019-04-21T00:35:21.036Z,28.00
2019-04-21T00:36:25.267Z,28.00
2019-04-21T00:37:31.380Z,23.40
2019-04-21T00:38:56.446Z,27.50
2019-04-21T00:39:51.965Z,27.50
2019-04-21T00:40:46.103Z,28.90
2019-04-21T00:41:38.106Z,29.10
2019-04-21T00:42:34.319Z,28.60
2019-04-21T00:43:32.940Z,29.50
2019-04-21T00:44:29.399Z,29.70
2019-04-21T00:45:32.545Z,29.80
2019-04-21T00:46:35.110Z,31.10
2019-04-21T00:47:38.804Z,30.50
2019-04-21T00:48:45.908Z,29.40
2019-04-21T00:49:34.355Z,30.80
2019-04-21T00:50:53.231Z,29.90
2019-04-21T00:51:49.814Z,30.30
2019-04-21T00:52:52.573Z,31.00
2019-04-21T00:53:45.563Z,31.50
2019-04-21T00:54:51.982Z,31.50
2019-04-21T00:55:46.689Z,31.90
2019-04-21T00:56:46.694Z,31.70
2019-04-21T00:57:44.955Z,31.70
2019-04-21T00:58:39.606Z,32.20
2019-04-21T00:59:43.307Z,33.60
2019-04-21T01:00:38.563Z,31.90
2019-04-21T01:01:40.656Z,33.20
2019-04-21T01:02:48.513Z,33.10
2019-04-21T01:03:38.453Z,33.30
2019-04-21T01:04:42.866Z,33.00
2019-04-21T01:05:42.782Z,34.70
2019-04-21T01:06:43.468Z,33.80
2019-04-21T01:07:37.061Z,34.50
2019-04-21T01:08:39.984Z,34.80
2019-04-21T01:09:34.253Z,28.40
2019-04-21T01:10:33.575Z,34.60
2019-04-21T01:11:40.233Z,36.50
2019-04-21T01:12:37.387Z,35.10
2019-04-21T01:13:41.490Z,34.10
2019-04-21T01:14:45.611Z,35.40
2019-04-21T01:15:43.553Z,34.70
2019-04-21T01:16:43.879Z,36.00
2019-04-21T01:17:40.651Z,35.10
2019-04-21T01:18:38.064Z,35.40
2019-04-21T01:19:38.800Z,35.00
2019-04-21T01:20:18.221Z,35.80
2019-04-21T01:21:16.598Z,31.80
2019-04-21T01:22:16.587Z,35.90
2019-04-21T01:23:16.776Z,35.90
2019-04-21T01:24:21.923Z,37.50
2019-04-21T01:25:25.863Z,36.80
2019-04-21T01:26:31.098Z,36.30
2019-04-21T01:27:40.638Z,37.40
2019-04-21T01:28:37.646Z,36.20
2019-04-21T01:29:44.060Z,38.10
2019-04-21T01:30:41.498Z,37.80
2019-04-21T01:31:36.327Z,37.30
2019-04-21T01:32:42.706Z,37.50
2019-04-21T01:33:39.691Z,37.50
2019-04-21T01:34:39.309Z,38.10
2019-04-21T01:35:40.265Z,37.90
2019-04-21T01:36:37.045Z,37.80
2019-04-21T01:37:44.166Z,38.20
2019-04-21T01:38:45.330Z,38.20
2019-04-21T01:39:48.506Z,39.00
2019-04-21T01:40:41.014Z,38.60
2019-04-21T01:41:42.965Z,39.50
2019-04-21T01:42:41.138Z,38.20
2019-04-21T01:43:33.497Z,38.40
2019-04-21T01:44:41.866Z,39.90
2019-04-21T01:45:37.042Z,40.90
2019-04-21T01:46:36.364Z,40.20
2019-04-21T01:47:32.704Z,39.70
2019-04-21T01:48:34.467Z,41.10
2019-04-21T01:49:29.673Z,41.20
2019-04-21T01:50:36.605Z,40.90
2019-04-21T01:51:36.747Z,40.90
2019-04-21T01:52:46.203Z,41.00
2019-04-21T01:53:43.506Z,40.60
2019-04-21T01:54:40.434Z,41.50
2019-04-21T01:55:36.806Z,41.70
2019-04-21T01:56:35.651Z,39.80
2019-04-21T01:57:34.681Z,40.50
2019-04-21T01:58:29.480Z,42.10
2019-04-21T01:59:33.708Z,42.00
2019-04-21T02:00:32.807Z,41.60
2019-04-21T02:01:54.165Z,41.90
2019-04-21T02:02:36.379Z,42.50
2019-04-21T02:04:45.346Z,42.20
2019-04-21T02:05:43.947Z,42.20
2019-04-21T02:06:41.402Z,41.00
2019-04-21T02:07:39.877Z,42.40
2019-04-21T02:08:34.537Z,41.50
2019-04-21T02:09:38.414Z,42.40
2019-04-21T02:10:40.282Z,42.80
2019-04-21T02:11:48.618Z,43.20
2019-04-21T02:12:38.067Z,43.50
2019-04-21T02:13:35.508Z,41.70
2019-04-21T02:14:45.746Z,43.70
2019-04-21T02:15:42.317Z,43.70
2019-04-21T02:16:40.624Z,43.30
2019-04-21T02:17:34.173Z,43.10
2019-04-21T02:18:33.351Z,42.50
2019-04-21T02:19:32.597Z,44.00
2019-04-21T02:20:29.437Z,42.90
2019-04-21T02:21:31.839Z,44.30
2019-04-21T02:22:46.176Z,43.90
2019-04-21T02:24:42.498Z,43.70
2019-04-21T02:25:38.446Z,44.50
2019-04-21T02:26:42.898Z,43.30
2019-04-21T02:27:36.477Z,44.40
2019-04-21T02:28:42.821Z,45.30
2019-04-21T02:29:41.558Z,44.50
2019-04-21T02:31:45.332Z,45.90
2019-04-21T02:32:49.547Z,45.80
2019-04-21T02:33:57.489Z,44.80
2019-04-21T02:34:49.142Z,45.50
2019-04-21T02:36:15.567Z,45.50
2019-04-21T02:36:52.978Z,46.00
2019-04-21T02:37:54.876Z,44.40
2019-04-21T02:39:48.973Z,45.80
2019-04-21T02:41:51.208Z,46.80
2019-04-21T02:43:07.519Z,46.90
2019-04-21T02:43:52.456Z,47.80
2019-04-21T02:44:52.174Z,47.50
2019-04-21T02:45:47.115Z,46.60
2019-04-21T02:46:42.132Z,46.10
2019-04-21T02:48:11.196Z,46.50
2019-04-21T02:49:56.014Z,46.00
2019-04-21T02:53:03.571Z,46.10
2019-04-21T02:55:56.564Z,47.20
2019-04-21T02:56:59.107Z,46.50
2019-04-21T02:57:51.903Z,49.30
2019-04-21T02:58:57.006Z,46.90
2019-04-21T02:59:55.822Z,46.20
2019-04-21T03:00:44.447Z,46.70
2019-04-21T03:02:52.566Z,48.10
2019-04-21T03:03:49.186Z,49.20
2019-04-21T03:05:01.718Z,47.90
2019-04-21T03:06:59.935Z,49.20
2019-04-21T03:07:55.407Z,50.00
2019-04-21T03:08:56.687Z,49.40
2019-04-21T03:09:44.485Z,49.00
2019-04-21T03:11:52.311Z,49.70
2019-04-21T03:12:53.034Z,48.60
2019-04-21T03:13:46.979Z,49.30
2019-04-21T03:14:59.569Z,50.30
2019-04-21T03:15:53.221Z,51.00
2019-04-21T03:16:49.328Z,51.30
2019-04-21T03:17:49.928Z,50.80
2019-04-21T03:18:54.243Z,51.50
2019-04-21T03:19:59.869Z,49.40
2019-04-21T03:20:42.127Z,51.70
2019-04-21T03:21:48.347Z,50.80
2019-04-21T03:23:58.346Z,51.20
2019-04-21T03:25:20.483Z,52.70
2019-04-21T03:25:53.443Z,51.10
2019-04-21T03:31:11.532Z,52.20
2019-04-21T03:35:14.909Z,52.70
2019-04-21T03:36:30.018Z,51.50
2019-04-21T03:37:47.025Z,52.80
2019-04-21T03:38:40.500Z,52.30
2019-04-21T03:39:56.781Z,54.00
2019-04-21T03:40:39.399Z,54.70
2019-04-21T03:42:00.189Z,54.00
2019-04-21T03:44:08.023Z,53.30
2019-04-21T03:44:45.714Z,56.20
2019-04-21T03:45:42.298Z,56.50
2019-04-21T03:46:47.743Z,55.00
2019-04-21T03:47:43.479Z,55.70
2019-04-21T03:49:04.742Z,56.80
2019-04-21T03:50:47.263Z,55.20
2019-04-21T03:51:45.805Z,55.50
2019-04-21T03:55:01.565Z,57.50
2019-04-21T03:55:53.165Z,56.80
2019-04-21T03:57:06.032Z,57.00
2019-04-21T03:59:52.341Z,57.20
2019-04-21T04:01:50.643Z,54.50
2019-04-21T04:02:55.269Z,57.30
2019-04-21T04:04:44.910Z,57.70
2019-04-21T04:05:59.669Z,58.50
2019-04-21T04:08:57.533Z,58.40
2019-04-21T04:10:58.708Z,57.30
2019-04-21T04:11:58.449Z,58.10
2019-04-21T04:14:20.351Z,58.50
2019-04-21T04:14:44.186Z,56.70
2019-04-21T04:17:40.796Z,58.80
2019-04-21T04:20:48.059Z,58.10
2019-04-21T04:22:09.162Z,57.30
2019-04-21T04:22:49.681Z,58.90
2019-04-21T04:25:03.479Z,59.30
2019-04-21T04:25:53.657Z,58.80
2019-04-21T04:26:45.508Z,60.10
2019-04-21T04:28:02.147Z,60.40
2019-04-21T04:29:59.334Z,61.60
2019-04-21T04:30:45.959Z,61.50
2019-04-21T04:32:59.088Z,62.40
2019-04-21T04:34:09.875Z,60.70
2019-04-21T04:34:49.933Z,61.10
2019-04-21T04:36:58.447Z,60.90
2019-04-21T04:38:56.309Z,62.20
2019-04-21T04:39:48.494Z,63.60
2019-04-21T04:40:51.246Z,64.30
2019-04-21T04:41:56.830Z,63.90
2019-04-21T04:43:44.633Z,64.80
2019-04-21T04:45:48.201Z,66.40
2019-04-21T04:48:57.309Z,65.50
2019-04-21T04:50:50.057Z,66.60
2019-04-21T04:51:56.718Z,67.00
2019-04-21T04:53:43.951Z,68.50
2019-04-21T04:56:48.201Z,67.90
2019-04-21T04:57:55.029Z,67.70
2019-04-21T04:59:18.619Z,70.80
2019-04-21T05:00:52.130Z,70.80
2019-04-21T05:01:53.329Z,70.70
2019-04-21T05:02:40.307Z,72.40
2019-04-21T05:03:50.976Z,72.00
2019-04-21T05:05:48.816Z,71.40
2019-04-21T05:07:52.333Z,72.60
2019-04-21T05:09:47.105Z,72.80
2019-04-21T05:11:07.713Z,74.70
2019-04-21T05:12:48.130Z,72.20
2019-04-21T05:13:51.450Z,72.80
2019-04-21T05:14:46.162Z,74.20
2019-04-21T05:15:42.616Z,73.40
2019-04-21T05:17:43.290Z,73.50
2019-04-21T05:18:53.112Z,74.00
2019-04-21T05:20:03.547Z,73.10
2019-04-21T05:20:41.891Z,74.80
2019-04-21T05:21:59.532Z,77.10
2019-04-21T05:22:53.089Z,74.70
2019-04-21T05:23:38.359Z,74.70
2019-04-21T05:24:33.266Z,78.50
2019-04-21T05:25:27.768Z,76.50
2019-04-21T05:26:33.368Z,77.80
2019-04-21T05:27:32.085Z,77.30
2019-04-21T05:28:30.195Z,77.30
2019-04-21T05:29:36.388Z,77.30
2019-04-21T05:30:43.413Z,78.30
2019-04-21T05:31:43.056Z,77.60
2019-04-21T05:32:42.774Z,79.40
2019-04-21T05:33:38.398Z,79.70
2019-04-21T05:34:42.972Z,80.90
2019-04-21T05:35:32.188Z,80.80
2019-04-21T05:36:40.797Z,80.10
2019-04-21T05:37:39.798Z,81.40
2019-04-21T05:38:34.695Z,81.90
2019-04-21T05:39:33.645Z,82.30
2019-04-21T05:40:26.450Z,83.50
2019-04-21T05:41:26.557Z,84.40
2019-04-21T05:42:30.357Z,83.20
2019-04-21T05:43:39.117Z,85.50
2019-04-21T05:44:41.869Z,84.90
2019-04-21T05:45:53.041Z,86.00
2019-04-21T05:46:40.783Z,85.20
2019-04-21T05:47:41.646Z,86.00
2019-04-21T05:49:34.140Z,86.30
2019-04-21T05:50:35.047Z,84.80
2019-04-21T05:51:30.630Z,86.30
2019-04-21T05:52:26.450Z,85.60
2019-04-21T05:53:38.660Z,85.90
2019-04-21T05:54:45.651Z,86.80
2019-04-21T05:56:37.970Z,84.10
2019-04-21T05:57:33.459Z,86.10
2019-04-21T05:58:40.962Z,85.30
2019-04-21T05:59:40.364Z,85.30
2019-04-21T06:00:59.290Z,86.10
2019-04-21T06:01:37.729Z,84.80
2019-04-21T06:02:36.557Z,84.70
2019-04-21T06:05:02.072Z,85.00
2019-04-21T06:05:58.461Z,85.20
2019-04-21T06:06:39.203Z,84.40
2019-04-21T06:07:38.237Z,83.00
2019-04-21T06:08:38.972Z,83.30
2019-04-21T06:09:45.425Z,83.50
2019-04-21T06:10:41.934Z,82.40
2019-04-21T06:11:36.369Z,83.90
2019-04-21T06:12:44.904Z,82.00
2019-04-21T06:13:46.444Z,82.90
2019-04-21T06:14:36.723Z,79.50
2019-04-21T06:15:48.416Z,80.00
2019-04-21T06:16:43.604Z,81.80
2019-04-21T06:17:42.852Z,80.10
2019-04-21T06:18:44.940Z,80.00
2019-04-21T06:19:43.195Z,81.60
2019-04-21T06:20:38.843Z,80.00
2019-04-21T06:21:36.005Z,82.00
2019-04-21T06:22:36.111Z,79.20
2019-04-21T06:23:36.019Z,77.90
2019-04-21T06:24:42.249Z,79.80
2019-04-21T06:27:19.461Z,77.10
2019-04-21T06:27:55.713Z,75.80
2019-04-21T06:28:41.676Z,74.10
2019-04-21T06:29:36.192Z,78.10
2019-04-21T06:30:39.206Z,74.60
2019-04-21T06:32:07.956Z,77.50
2019-04-21T06:32:48.395Z,76.10
2019-04-21T06:33:41.232Z,76.40
2019-04-21T06:34:53.158Z,78.90
2019-04-21T06:35:48.465Z,75.10
2019-04-21T06:36:45.162Z,76.80
2019-04-21T06:37:43.278Z,76.10
2019-04-21T06:38:43.393Z,75.90
2019-04-21T06:40:43.869Z,74.40
2019-04-21T06:41:35.352Z,75.10
2019-04-21T06:42:43.221Z,73.00
2019-04-21T06:43:40.188Z,74.50
2019-04-21T06:44:46.224Z,74.80
2019-04-21T06:45:43.638Z,72.10
2019-04-21T06:48:40.861Z,65.50
2019-04-21T06:49:35.407Z,70.90
2019-04-21T06:50:40.058Z,72.10
2019-04-21T06:51:38.964Z,72.40
2019-04-21T06:53:48.670Z,71.30
2019-04-21T06:54:44.381Z,72.20
2019-04-21T06:55:34.089Z,71.30
2019-04-21T06:58:35.902Z,67.70
2019-04-21T06:59:34.111Z,69.00
2019-04-21T07:00:38.479Z,70.90
2019-04-21T07:02:42.273Z,67.90
2019-04-21T07:03:40.487Z,66.80
2019-04-21T07:04:39.529Z,67.10
2019-04-21T07:05:40.940Z,66.00
2019-04-21T07:06:45.608Z,65.60
2019-04-21T07:07:41.872Z,66.60
2019-04-21T07:08:44.661Z,66.90
2019-04-21T07:09:36.710Z,68.20
2019-04-21T07:10:35.136Z,65.40
2019-04-21T07:11:33.161Z,69.50
2019-04-21T07:12:34.308Z,68.00
2019-04-21T07:13:30.967Z,68.80
2019-04-21T07:14:37.987Z,68.20
2019-04-21T07:15:41.917Z,67.10
2019-04-21T07:16:41.535Z,67.60
2019-04-21T07:17:32.612Z,66.70
2019-04-21T07:18:41.526Z,67.70
2019-04-21T07:19:41.222Z,67.20
2019-04-21T07:20:36.606Z,68.40
2019-04-21T07:21:33.846Z,70.20
2019-04-21T07:22:37.633Z,70.50
2019-04-21T07:23:39.992Z,68.70
2019-04-21T07:24:41.728Z,68.70
2019-04-21T07:25:40.861Z,69.60
2019-04-21T07:26:38.661Z,69.60
2019-04-21T07:27:35.124Z,68.70
2019-04-21T07:28:39.870Z,71.10
2019-04-21T07:29:39.586Z,72.80
2019-04-21T07:30:51.813Z,73.00
2019-04-21T07:31:39.901Z,72.10
2019-04-21T07:32:33.680Z,71.40
2019-04-21T07:35:51.786Z,71.30
2019-04-21T07:36:46.440Z,72.30
2019-04-21T07:37:35.314Z,73.30
2019-04-21T07:38:34.558Z,72.30
2019-04-21T07:39:34.024Z,70.40
2019-04-21T07:40:31.519Z,72.40
2019-04-21T07:41:24.969Z,70.40
2019-04-21T07:42:31.027Z,69.50
2019-04-21T07:43:33.130Z,69.70
2019-04-21T07:44:30.239Z,70.00
2019-04-21T07:45:30.682Z,71.60
2019-04-21T07:46:26.365Z,73.00
2019-04-21T07:47:37.270Z,69.50
2019-04-21T07:48:32.251Z,67.40
2019-04-21T07:49:36.955Z,66.40
2019-04-21T07:50:31.788Z,67.40
2019-04-21T07:51:40.429Z,66.50
2019-04-21T07:52:39.579Z,66.40
2019-04-21T07:53:48.236Z,64.80
2019-04-21T07:54:41.459Z,63.30
2019-04-21T07:56:20.308Z,64.00
2019-04-21T07:57:35.229Z,68.40
2019-04-21T07:58:38.702Z,67.80
2019-04-21T07:59:47.993Z,65.80
2019-04-21T08:00:35.933Z,64.30
2019-04-21T08:01:35.505Z,66.10
2019-04-21T08:02:34.304Z,65.70
2019-04-21T08:03:33.645Z,64.80
2019-04-21T08:05:38.610Z,62.10
2019-04-21T08:06:33.895Z,63.90
2019-04-21T08:07:41.763Z,63.50
2019-04-21T08:08:34.250Z,65.70
2019-04-21T08:09:31.887Z,63.20
2019-04-21T08:10:36.300Z,61.30
2019-04-21T08:11:28.265Z,61.20
2019-04-21T08:12:30.594Z,60.20
2019-04-21T08:14:13.910Z,60.80
2019-04-21T08:14:38.460Z,60.70
2019-04-21T08:15:39.558Z,60.80
2019-04-21T08:16:31.846Z,62.10
2019-04-21T08:17:36.614Z,62.80
2019-04-21T08:18:33.239Z,60.50
2019-04-21T08:19:31.027Z,62.20
2019-04-21T08:20:29.128Z,58.90
2019-04-21T08:21:37.305Z,57.90
2019-04-21T08:22:32.076Z,60.90
2019-04-21T08:23:31.866Z,60.20
2019-04-21T08:24:34.911Z,62.90
2019-04-21T08:25:36.392Z,62.90
2019-04-21T08:26:35.942Z,60.30
2019-04-21T08:27:35.401Z,60.80
2019-04-21T08:28:31.982Z,59.90
2019-04-21T08:31:38.383Z,60.70
2019-04-21T08:32:44.326Z,62.00
2019-04-21T08:33:38.405Z,58.30
2019-04-21T08:34:35.441Z,59.50
2019-04-21T08:35:52.951Z,57.40
2019-04-21T08:36:44.870Z,55.90
2019-04-21T08:37:31.399Z,56.60
2019-04-21T08:38:35.833Z,56.40
2019-04-21T08:39:42.330Z,57.50
2019-04-21T08:40:36.677Z,56.40
2019-04-21T08:41:36.156Z,58.00
2019-04-21T08:42:30.563Z,57.60
2019-04-21T08:43:42.648Z,58.20
2019-04-21T08:44:45.216Z,55.80
2019-04-21T08:45:36.129Z,56.50
2019-04-21T08:46:31.128Z,59.40
2019-04-21T08:47:36.588Z,60.10
2019-04-21T08:48:37.676Z,57.90
2019-04-21T08:49:39.213Z,56.70
2019-04-21T08:50:31.342Z,56.50
2019-04-21T08:51:33.333Z,55.50
2019-04-21T08:52:49.052Z,57.90
2019-04-21T08:53:36.237Z,56.10
2019-04-21T08:54:38.368Z,56.20
2019-04-21T08:55:37.185Z,55.90
2019-04-21T08:56:34.563Z,53.60
2019-04-21T08:57:48.870Z,52.00
2019-04-21T08:58:35.669Z,50.70
2019-04-21T08:59:36.350Z,52.70
2019-04-21T09:00:36.832Z,53.60
2019-04-21T09:02:35.298Z,52.30
2019-04-21T09:03:33.020Z,53.00
2019-04-21T09:04:29.098Z,53.30
2019-04-21T09:05:34.294Z,52.40
2019-04-21T09:06:52.590Z,49.80
2019-04-21T09:07:41.697Z,51.30
2019-04-21T09:08:33.150Z,53.40
2019-04-21T09:09:36.071Z,53.20
2019-04-21T09:10:31.070Z,53.60
2019-04-21T09:11:29.499Z,54.30
2019-04-21T09:12:29.413Z,55.20
2019-04-21T09:13:32.130Z,55.30
2019-04-21T09:14:31.016Z,56.40
2019-04-21T09:15:32.084Z,56.60
2019-04-21T09:16:31.166Z,54.90
2019-04-21T09:17:26.290Z,52.70
2019-04-21T09:18:28.410Z,52.90
2019-04-21T09:19:40.104Z,56.00
2019-04-21T09:20:33.215Z,55.10
2019-04-21T09:21:31.344Z,54.30
2019-04-21T09:22:31.754Z,56.60
2019-04-21T09:23:36.458Z,55.20
2019-04-21T09:24:28.053Z,57.40
2019-04-21T09:25:38.632Z,54.40
2019-04-21T09:26:29.339Z,56.30
2019-04-21T09:27:27.391Z,57.30
2019-04-21T09:28:28.836Z,58.30
2019-04-21T09:29:21.760Z,54.30
2019-04-21T09:30:12.981Z,54.80
2019-04-21T09:31:12.232Z,56.40
2019-04-21T09:32:18.427Z,57.10
2019-04-21T09:33:12.394Z,56.60
2019-04-21T09:34:20.632Z,56.70
2019-04-21T09:35:14.808Z,57.30
2019-04-21T09:36:15.970Z,57.70
2019-04-21T09:37:24.405Z,60.30
2019-04-21T09:38:22.675Z,57.10
2019-04-21T09:39:16.543Z,57.40
2019-04-21T09:40:14.013Z,54.20
2019-04-21T09:41:16.128Z,53.90
2019-04-21T09:42:13.621Z,53.20
2019-04-21T09:43:13.453Z,53.90
2019-04-21T09:44:18.731Z,55.20
2019-04-21T09:45:13.873Z,55.60
2019-04-21T09:46:11.808Z,54.00
2019-04-21T09:47:12.588Z,54.20
2019-04-21T09:48:16.716Z,54.30
2019-04-21T09:49:16.519Z,53.00
2019-04-21T09:50:13.459Z,51.20
2019-04-21T09:51:11.205Z,51.40
2019-04-21T09:52:18.590Z,54.50
2019-04-21T09:53:20.434Z,54.30
2019-04-21T09:54:20.491Z,53.60
2019-04-21T09:55:17.111Z,52.50
2019-04-21T09:56:16.712Z,53.40
2019-04-21T09:57:24.304Z,53.10
2019-04-21T09:58:21.798Z,51.10
2019-04-21T09:59:20.662Z,51.10
2019-04-21T10:00:18.742Z,51.40
2019-04-21T10:01:20.588Z,46.60
2019-04-21T10:02:19.237Z,50.10
2019-04-21T10:03:15.728Z,43.00
2019-04-21T10:04:12.077Z,43.60
2019-04-21T10:05:12.294Z,47.30
2019-04-21T10:06:11.561Z,49.50
2019-04-21T10:07:23.597Z,49.90
2019-04-21T10:08:12.572Z,49.50
2019-04-21T10:09:14.419Z,49.30
2019-04-21T10:10:12.888Z,49.50
2019-04-21T10:11:11.886Z,51.90
2019-04-21T10:12:11.864Z,50.10
2019-04-21T10:13:10.932Z,46.80
2019-04-21T10:14:11.735Z,45.50
2019-04-21T10:15:10.964Z,49.20
2019-04-21T10:16:10.912Z,49.80
2019-04-21T10:17:11.027Z,51.80
2019-04-21T10:18:10.935Z,53.30
2019-04-21T10:19:11.219Z,53.30
2019-04-21T10:20:11.789Z,52.40
2019-04-21T10:21:10.858Z,52.80
2019-04-21T10:22:10.831Z,51.70
2019-04-21T10:23:11.390Z,53.40
2019-04-21T10:24:10.820Z,57.60
2019-04-21T10:25:10.809Z,53.40
2019-04-21T10:26:10.789Z,53.20
2019-04-21T10:27:12.888Z,52.20
2019-04-21T10:28:11.012Z,52.00
2019-04-21T10:29:17.001Z,55.90
2019-04-21T10:30:12.116Z,55.60
2019-04-21T10:31:11.021Z,56.20
2019-04-21T10:32:11.348Z,57.50
2019-04-21T10:33:10.717Z,55.50
2019-04-21T10:34:11.514Z,54.70
2019-04-21T10:35:10.996Z,54.30
2019-04-21T10:36:11.042Z,46.60
2019-04-21T10:37:11.214Z,46.90
2019-04-21T10:38:19.818Z,51.30
2019-04-21T10:39:11.722Z,50.40
2019-04-21T10:40:11.757Z,50.60
2019-04-21T10:41:11.738Z,47.40
2019-04-21T10:42:11.302Z,48.80
2019-04-21T10:43:13.462Z,48.80
2019-04-21T10:44:11.439Z,49.20
2019-04-21T10:45:10.888Z,50.30
2019-04-21T10:46:10.816Z,46.30
2019-04-21T10:47:10.962Z,45.20
2019-04-21T10:48:10.912Z,48.10
2019-04-21T10:49:10.831Z,44.10
2019-04-21T10:50:10.890Z,44.00
2019-04-21T10:51:10.765Z,45.90
2019-04-21T10:52:10.952Z,46.50
2019-04-21T10:53:11.142Z,44.50
2019-04-21T10:54:11.663Z,43.90
2019-04-21T10:55:30.973Z,42.10
2019-04-21T10:56:21.124Z,45.30
2019-04-21T10:57:12.500Z,45.40
2019-04-21T10:58:10.816Z,45.80
2019-04-21T10:59:10.429Z,43.90
2019-04-21T11:00:12.045Z,42.80
2019-04-21T11:01:10.706Z,42.60
2019-04-21T11:02:10.636Z,39.60
2019-04-21T11:03:10.901Z,39.20
2019-04-21T11:04:17.015Z,39.50
2019-04-21T11:05:12.500Z,38.20
2019-04-21T11:06:10.639Z,37.80
2019-04-21T11:07:14.534Z,39.70
2019-04-21T11:08:22.616Z,39.70
2019-04-21T11:09:11.325Z,40.00
2019-04-21T11:10:11.633Z,40.60
2019-04-21T11:11:10.315Z,39.60
2019-04-21T11:12:10.338Z,41.10
2019-04-21T11:13:10.428Z,40.30
2019-04-21T11:14:10.590Z,39.40
2019-04-21T11:15:11.444Z,39.60
2019-04-21T11:16:10.964Z,37.60
2019-04-21T11:17:10.273Z,37.60
2019-04-21T11:18:10.299Z,40.60
2019-04-21T11:19:11.631Z,39.10
2019-04-21T11:20:10.835Z,39.00
2019-04-21T11:21:11.198Z,39.30
2019-04-21T11:22:10.467Z,38.20
2019-04-21T11:23:10.223Z,37.60
2019-04-21T11:24:10.327Z,38.10
2019-04-21T11:25:11.192Z,39.30
2019-04-21T11:26:10.160Z,35.20
2019-04-21T11:27:10.932Z,34.50
2019-04-21T11:28:11.164Z,35.00
2019-04-21T11:29:10.809Z,35.20
2019-04-21T11:30:11.655Z,35.30
2019-04-21T11:31:11.105Z,35.00
2019-04-21T11:32:10.098Z,35.30
2019-04-21T11:33:11.244Z,36.80
2019-04-21T11:34:11.214Z,38.10
2019-04-21T11:35:10.047Z,36.70
2019-04-21T11:36:11.164Z,36.30
2019-04-21T11:37:10.290Z,36.30
2019-04-21T11:38:16.945Z,36.80
2019-04-21T11:39:23.597Z,36.80
2019-04-21T11:40:14.964Z,36.60
2019-04-21T11:41:11.950Z,34.70
2019-04-21T11:42:10.113Z,35.50
2019-04-21T11:43:09.965Z,35.60
2019-04-21T11:44:09.955Z,35.90
2019-04-21T11:45:10.510Z,34.30
2019-04-21T11:46:10.827Z,34.70
2019-04-21T11:47:10.265Z,35.40
2019-04-21T11:48:10.469Z,33.50
2019-04-21T11:49:10.386Z,34.00
2019-04-21T11:50:10.887Z,33.90
2019-04-21T11:51:11.028Z,34.20
2019-04-21T11:52:11.223Z,32.00
2019-04-21T11:53:10.650Z,32.60
2019-04-21T11:54:10.843Z,31.40
2019-04-21T11:55:11.010Z,32.50
2019-04-21T11:56:09.831Z,31.90
2019-04-21T11:57:16.050Z,31.40
2019-04-21T11:58:11.902Z,32.80
2019-04-21T11:59:10.062Z,31.70
2019-04-21T12:00:09.790Z,30.50
2019-04-21T12:01:09.771Z,31.10
2019-04-21T12:02:09.824Z,31.60
2019-04-21T12:03:12.395Z,32.20
2019-04-21T12:04:11.735Z,30.80
2019-04-21T12:05:09.787Z,30.20
2019-04-21T12:06:11.060Z,31.00
2019-04-21T12:07:09.718Z,31.10
2019-04-21T12:08:21.198Z,29.80
2019-04-21T12:09:11.764Z,29.70
2019-04-21T12:10:09.677Z,30.10
2019-04-21T12:11:09.695Z,28.30
2019-04-21T12:12:09.660Z,29.30
2019-04-21T12:13:10.080Z,30.20
2019-04-21T12:14:09.980Z,28.50
2019-04-21T12:15:11.237Z,28.30
2019-04-21T12:16:10.660Z,28.70
2019-04-21T12:17:10.038Z,28.30
2019-04-21T12:18:10.044Z,28.60
2019-04-21T12:19:09.597Z,27.00
2019-04-21T12:20:10.637Z,28.10
2019-04-21T12:21:09.562Z,28.20
2019-04-21T12:22:18.213Z,27.00
2019-04-21T12:23:10.537Z,27.50
2019-04-21T12:24:09.545Z,27.50
2019-04-21T12:25:09.526Z,26.10
2019-04-21T12:26:09.513Z,26.60
2019-04-21T12:27:09.821Z,26.90
2019-04-21T12:28:10.030Z,26.20
2019-04-21T12:29:10.067Z,25.90
2019-04-21T12:30:09.584Z,25.30
2019-04-21T12:31:09.685Z,25.80
2019-04-21T12:32:09.763Z,26.60
2019-04-21T12:33:09.876Z,24.10
2019-04-21T12:34:09.866Z,24.40
2019-04-21T12:35:10.071Z,25.10
2019-04-21T12:36:09.536Z,24.90
2019-04-21T12:37:10.668Z,24.70
2019-04-21T12:38:09.378Z,23.60
2019-04-21T12:39:10.702Z,25.50
2019-04-21T12:40:10.512Z,26.00
2019-04-21T12:41:10.676Z,24.60
2019-04-21T12:42:09.346Z,24.50
2019-04-21T12:43:10.480Z,23.70
2019-04-21T12:44:10.724Z,24.50
2019-04-21T12:45:09.786Z,23.70
2019-04-21T12:46:09.724Z,23.20
2019-04-21T12:47:10.066Z,24.30
2019-04-21T12:48:10.452Z,23.50
2019-04-21T12:49:09.775Z,22.50
2019-04-21T12:50:09.253Z,24.40
2019-04-21T12:51:10.141Z,24.20
2019-04-21T12:52:09.418Z,23.40
2019-04-21T12:53:09.538Z,24.00
2019-04-21T12:54:09.849Z,23.90
2019-04-21T12:55:09.503Z,24.10
2019-04-21T12:56:09.492Z,23.90
2019-04-21T12:57:09.658Z,22.50
2019-04-21T12:58:09.167Z,22.50
2019-04-21T12:59:10.017Z,22.00
2019-04-21T13:00:09.156Z,23.40
2019-04-21T13:01:09.366Z,21.90
2019-04-21T13:02:09.590Z,20.80
2019-04-21T13:03:09.912Z,22.60
2019-04-21T13:04:10.132Z,22.40
2019-04-21T13:05:09.506Z,21.60
2019-04-21T13:06:09.968Z,21.80
2019-04-21T13:07:09.821Z,20.60
2019-04-21T13:08:09.302Z,21.10
2019-04-21T13:09:12.362Z,20.60
2019-04-21T13:10:10.507Z,21.30
2019-04-21T13:11:09.556Z,20.50
2019-04-21T13:12:09.048Z,21.70
2019-04-21T13:13:10.061Z,21.70
2019-04-21T13:14:08.980Z,20.40
2019-04-21T13:15:08.978Z,20.60
2019-04-21T13:16:09.652Z,19.90
2019-04-21T13:17:09.847Z,21.10
2019-04-21T13:18:10.095Z,20.90
2019-04-21T13:19:09.339Z,20.50
2019-04-21T13:20:09.547Z,20.60
2019-04-21T13:21:09.910Z,20.20
2019-04-21T13:22:09.904Z,20.80
2019-04-21T13:23:10.066Z,21.20
2019-04-21T13:24:08.895Z,21.30
2019-04-21T13:25:09.734Z,21.80
2019-04-21T13:26:09.747Z,20.90
2019-04-21T13:27:09.455Z,20.70
2019-04-21T13:28:08.845Z,20.60
2019-04-21T13:29:10.147Z,20.50
2019-04-21T13:30:08.831Z,19.80
2019-04-21T13:31:08.815Z,20.30
2019-04-21T13:32:09.361Z,20.30
2019-04-21T13:33:09.203Z,20.90
2019-04-21T13:34:10.288Z,18.90
2019-04-21T13:35:10.719Z,19.20
2019-04-21T13:36:09.684Z,20.00
2019-04-21T13:37:09.734Z,18.50
2019-04-21T13:38:19.866Z,19.10
2019-04-21T13:39:38.250Z,18.90
2019-04-21T13:40:29.201Z,20.00
2019-04-21T13:41:23.176Z,20.50
2019-04-21T13:42:19.692Z,20.40
2019-04-21T13:43:10.686Z,18.80
2019-04-21T13:44:08.960Z,18.30
2019-04-21T13:45:10.200Z,19.00
2019-04-21T13:46:09.885Z,18.60
2019-04-21T13:47:08.639Z,18.90
2019-04-21T13:48:08.629Z,19.00
2019-04-21T13:49:09.493Z,19.70
2019-04-21T13:50:08.880Z,18.40
2019-04-21T13:51:09.135Z,17.70
2019-04-21T13:52:08.912Z,18.10
2019-04-21T13:53:09.033Z,18.50
2019-04-21T13:54:09.615Z,18.20
2019-04-21T13:55:09.602Z,18.30
2019-04-21T13:56:08.893Z,18.40
2019-04-21T13:57:08.564Z,17.20
2019-04-21T13:58:08.649Z,17.60
2019-04-21T13:59:08.549Z,17.30
2019-04-21T14:00:08.976Z,17.10
2019-04-21T14:01:09.625Z,17.00
2019-04-21T14:02:08.937Z,18.00
2019-04-21T14:03:08.475Z,17.30
2019-04-21T14:04:09.529Z,17.50
2019-04-21T14:05:10.435Z,16.40
2019-04-21T14:06:08.603Z,16.40
2019-04-21T14:07:08.433Z,17.10
2019-04-21T14:08:09.296Z,16.90